createdAt,value
2019-01-18T00:01:21.824Z,0.60
2019-01-18T00:04:09.770Z,0.50
2019-01-18T00:06:57.721Z,0.80
2019-01-18T00:09:45.747Z,0.80
2019-01-18T00:12:33.932Z,0.80
2019-01-18T00:15:21.915Z,0.90
2019-01-18T00:18:09.872Z,0.90
2019-01-18T00:20:57.811Z,0.93
2019-01-18T00:23:45.762Z,1.00
2019-01-18T00:26:33.836Z,1.20
2019-01-18T00:29:21.796Z,0.90
2019-01-18T00:32:09.770Z,1.00
2019-01-18T00:34:57.714Z,1.27
2019-01-18T00:37:45.776Z,0.70
2019-01-18T00:40:33.728Z,0.70
2019-01-18T00:43:15.161Z,0.60
2019-01-18T00:45:55.813Z,1.13
2019-01-18T00:51:37.959Z,0.70
2019-01-18T00:54:18.965Z,0.90
2019-01-18T01:00:02.840Z,1.07
2019-01-18T01:02:43.774Z,0.70
2019-01-18T01:08:37.840Z,0.80
2019-01-18T01:14:00.812Z,0.63
2019-01-18T01:16:41.893Z,0.60
2019-01-18T01:22:22.632Z,0.80
2019-01-18T01:30:47.764Z,0.90
2019-01-18T01:33:28.761Z,0.73
2019-01-18T01:39:22.421Z,0.90
2019-01-18T01:42:03.021Z,0.80
2019-01-18T01:44:44.239Z,0.60
2019-01-18T01:47:25.032Z,0.80
2019-01-18T01:53:05.020Z,1.10
2019-01-18T01:55:46.097Z,0.50
2019-01-18T02:01:25.951Z,0.83
2019-01-18T02:07:04.984Z,0.63
2019-01-18T02:09:45.416Z,1.10
2019-01-18T02:15:39.387Z,1.27
2019-01-18T02:18:20.120Z,0.90
2019-01-18T02:21:00.895Z,0.73
2019-01-18T02:26:43.981Z,0.60
2019-01-18T02:29:24.404Z,0.70
2019-01-18T02:37:48.526Z,0.70
2019-01-18T02:40:28.989Z,0.72
2019-01-18T02:49:03.644Z,0.62
2019-01-18T02:54:45.414Z,0.90
2019-01-18T02:57:33.362Z,0.90
2019-01-18T03:00:22.054Z,0.60
2019-01-18T03:03:10.010Z,0.60
2019-01-18T03:05:58.001Z,0.80
2019-01-18T03:08:45.968Z,0.60
2019-01-18T03:11:33.934Z,0.70
2019-01-18T03:14:22.404Z,0.72
2019-01-18T03:17:10.389Z,0.68
2019-01-18T03:19:58.332Z,0.70
2019-01-18T03:22:46.545Z,0.60
2019-01-18T03:25:34.513Z,0.60
2019-01-18T03:28:22.477Z,0.70
2019-01-18T03:31:10.434Z,0.50
2019-01-18T03:33:58.384Z,0.85
2019-01-18T03:36:46.354Z,0.70
2019-01-18T03:39:34.299Z,0.65
2019-01-18T03:42:14.968Z,0.70
2019-01-18T03:44:56.007Z,0.50
2019-01-18T03:47:36.833Z,0.82
2019-01-18T03:53:16.982Z,0.60
2019-01-18T03:55:57.904Z,0.60
2019-01-18T04:01:51.653Z,0.80
2019-01-18T04:04:32.165Z,0.60
2019-01-18T04:07:00.881Z,0.93
2019-01-18T04:09:48.447Z,0.78
2019-01-18T04:12:36.017Z,1.42
2019-01-18T04:18:32.489Z,0.93
2019-01-18T04:21:20.581Z,0.80
2019-01-18T04:24:08.551Z,0.90
2019-01-18T04:26:56.534Z,1.05
2019-01-18T04:29:44.490Z,1.07
2019-01-18T04:32:32.467Z,1.40
2019-01-18T04:35:20.418Z,1.10
2019-01-18T04:38:08.390Z,1.55
2019-01-18T04:40:56.350Z,1.62
2019-01-18T04:43:37.574Z,1.70
2019-01-18T04:46:18.726Z,1.50
2019-01-18T04:57:27.450Z,2.30
2019-01-18T05:00:15.021Z,1.92
2019-01-18T05:03:02.603Z,1.87
2019-01-18T05:08:59.246Z,2.00
2019-01-18T05:11:47.190Z,2.20
2019-01-18T05:14:35.134Z,1.80
2019-01-18T05:17:23.126Z,2.08
2019-01-18T05:19:51.813Z,1.50
2019-01-18T05:22:39.765Z,1.40
2019-01-18T05:25:27.705Z,1.80
2019-01-18T05:28:15.323Z,1.65
2019-01-18T05:31:03.225Z,1.30
2019-01-18T05:33:50.776Z,1.37
2019-01-18T05:36:38.352Z,1.32
2019-01-18T05:39:25.924Z,1.45
2019-01-18T05:45:19.534Z,1.62
2019-01-18T05:48:00.017Z,1.60
2019-01-18T05:50:40.765Z,1.62
2019-01-18T05:53:21.828Z,1.55
2019-01-18T05:59:15.184Z,2.60
2019-01-18T06:01:56.227Z,2.15
2019-01-18T06:04:36.675Z,4.40
2019-01-18T06:10:30.574Z,1.35
2019-01-18T06:13:11.538Z,1.60
2019-01-18T06:15:52.111Z,1.32
2019-01-18T06:18:32.780Z,1.10
2019-01-18T06:24:26.099Z,1.50
2019-01-18T06:27:06.638Z,1.10
2019-01-18T06:29:47.904Z,1.30
2019-01-18T06:32:28.660Z,1.32
2019-01-18T06:38:08.544Z,1.30
2019-01-18T06:40:49.984Z,1.92
2019-01-18T06:46:29.814Z,1.60
2019-01-18T06:51:57.389Z,1.62
2019-01-18T06:54:44.989Z,1.10
2019-01-18T06:57:32.555Z,1.85
2019-01-18T07:00:20.367Z,1.45
2019-01-18T07:03:07.998Z,1.80
2019-01-18T07:05:55.559Z,2.05
2019-01-18T07:08:43.133Z,2.00
2019-01-18T07:11:30.730Z,1.60
2019-01-18T07:14:18.302Z,2.35
2019-01-18T07:17:05.853Z,2.65
2019-01-18T07:19:53.499Z,1.45
2019-01-18T07:22:41.075Z,2.37
2019-01-18T07:25:28.664Z,2.50
2019-01-18T07:28:16.220Z,2.08
2019-01-18T07:31:03.805Z,2.05
2019-01-18T07:33:51.374Z,2.02
2019-01-18T07:36:38.968Z,2.17
2019-01-18T07:39:26.532Z,2.50
2019-01-18T07:48:04.792Z,1.82
2019-01-18T07:53:44.367Z,2.50
2019-01-18T07:56:25.317Z,2.25
2019-01-18T08:02:18.238Z,2.37
2019-01-18T08:04:58.789Z,2.55
2019-01-18T08:07:39.462Z,2.83
2019-01-18T08:10:29.622Z,2.00
2019-01-18T08:13:17.533Z,2.08
2019-01-18T08:16:05.107Z,2.17
2019-01-18T08:18:52.686Z,2.42
2019-01-18T08:21:40.253Z,2.60
2019-01-18T08:24:27.816Z,2.70
2019-01-18T08:27:15.422Z,2.35
2019-01-18T08:30:03.001Z,1.90
2019-01-18T08:32:50.583Z,2.00
2019-01-18T08:35:38.261Z,2.20
2019-01-18T08:38:25.845Z,2.05
2019-01-18T08:41:13.434Z,2.17
2019-01-18T08:47:07.064Z,3.45
2019-01-18T08:49:47.430Z,2.30
2019-01-18T08:52:28.397Z,2.20
2019-01-18T08:55:09.346Z,1.87
2019-01-18T09:00:49.270Z,2.20
2019-01-18T09:03:29.904Z,2.37
2019-01-18T09:09:09.697Z,2.20
2019-01-18T09:14:48.905Z,2.30
2019-01-18T09:17:29.721Z,1.95
2019-01-18T09:23:22.859Z,2.52
2019-01-18T09:26:04.232Z,2.50
2019-01-18T09:28:45.007Z,2.33
2019-01-18T09:31:25.585Z,3.05
2019-01-18T09:37:14.891Z,1.77
2019-01-18T09:40:02.957Z,3.17
2019-01-18T09:42:43.596Z,3.45
2019-01-18T09:45:24.701Z,1.80
2019-01-18T09:51:04.457Z,11.30
2019-01-18T09:56:43.959Z,4.30
2019-01-18T09:59:24.590Z,4.30
2019-01-18T10:05:03.483Z,3.60
2019-01-18T10:07:44.162Z,4.50
2019-01-18T10:13:37.173Z,3.10
2019-01-18T10:16:17.688Z,2.27
2019-01-18T10:18:58.634Z,2.85
2019-01-18T10:24:52.596Z,5.60
2019-01-18T10:27:33.269Z,6.35
2019-01-18T10:30:13.838Z,3.60
2019-01-18T10:32:54.513Z,6.33
2019-01-18T10:38:48.975Z,2.42
2019-01-18T10:41:30.125Z,1.72
2019-01-18T10:44:10.927Z,1.40
2019-01-18T10:52:34.671Z,2.03
2019-01-18T10:55:15.437Z,1.77
2019-01-18T11:01:09.121Z,2.50
2019-01-18T11:03:49.589Z,1.77
2019-01-18T11:06:30.238Z,2.07
2019-01-18T11:12:11.132Z,1.00
2019-01-18T11:14:51.771Z,1.40
2019-01-18T11:20:45.797Z,1.80
2019-01-18T11:23:27.129Z,1.50
2019-01-18T11:26:07.868Z,2.97
2019-01-18T11:31:35.660Z,1.83
2019-01-18T11:34:23.234Z,2.17
2019-01-18T11:37:11.149Z,3.37
2019-01-18T11:39:58.707Z,4.03
2019-01-18T11:45:51.876Z,1.60
2019-01-18T11:48:20.544Z,1.00
2019-01-18T11:51:08.138Z,3.70
2019-01-18T11:53:55.713Z,5.80
2019-01-18T11:56:43.304Z,1.30
2019-01-18T11:59:31.130Z,1.00
2019-01-18T12:02:22.224Z,0.90
2019-01-18T12:05:07.960Z,0.97
2019-01-18T12:07:55.535Z,1.07
2019-01-18T12:10:43.102Z,1.53
2019-01-18T12:13:30.686Z,0.97
2019-01-18T12:16:19.084Z,1.00
2019-01-18T12:24:53.896Z,3.60
2019-01-18T12:27:41.844Z,3.30
2019-01-18T12:30:30.808Z,2.53
2019-01-18T12:33:18.401Z,1.23
2019-01-18T12:36:05.988Z,2.47
2019-01-18T12:38:53.553Z,1.00
2019-01-18T12:41:41.131Z,0.60
2019-01-18T12:47:35.147Z,2.97
2019-01-18T12:50:15.549Z,1.20
2019-01-18T12:52:56.491Z,1.90
2019-01-18T12:55:37.642Z,2.40
2019-01-18T13:01:31.225Z,1.10
2019-01-18T13:04:11.852Z,1.40
2019-01-18T13:06:53.131Z,1.50
2019-01-18T13:09:34.332Z,1.10
2019-01-18T13:15:01.893Z,1.40
2019-01-18T13:17:49.461Z,1.50
2019-01-18T13:20:37.019Z,1.10
2019-01-18T13:23:24.605Z,1.30
2019-01-18T13:26:12.168Z,1.03
2019-01-18T13:28:59.760Z,0.93
2019-01-18T13:31:47.580Z,0.80
2019-01-18T13:34:35.154Z,1.00
2019-01-18T13:37:22.986Z,0.70
2019-01-18T13:40:10.570Z,0.80
2019-01-18T13:48:48.782Z,0.77
2019-01-18T13:51:29.313Z,1.00
2019-01-18T13:57:12.186Z,0.73
2019-01-18T13:59:51.440Z,0.80
2019-01-18T14:05:30.386Z,0.83
2019-01-18T14:10:57.505Z,0.93
2019-01-18T14:13:45.082Z,1.00
2019-01-18T14:16:32.651Z,0.90
2019-01-18T14:19:20.231Z,1.30
2019-01-18T14:25:15.031Z,1.13
2019-01-18T14:28:03.002Z,0.97
2019-01-18T14:30:50.973Z,0.70
2019-01-18T14:33:38.922Z,1.47
2019-01-18T14:36:26.866Z,0.90
2019-01-18T14:39:14.831Z,1.13
2019-01-18T14:41:56.229Z,0.80
2019-01-18T14:44:36.759Z,1.00
2019-01-18T14:50:30.008Z,1.77
2019-01-18T14:53:10.961Z,1.90
2019-01-18T14:55:51.578Z,2.27
2019-01-18T15:01:30.834Z,1.23
2019-01-18T15:04:11.443Z,1.90
2019-01-18T15:10:05.977Z,2.53
2019-01-18T15:12:46.392Z,1.90
2019-01-18T15:15:27.230Z,1.55
2019-01-18T15:18:07.690Z,1.90
2019-01-18T15:23:35.229Z,2.00
2019-01-18T15:26:22.811Z,1.85
2019-01-18T15:29:10.418Z,2.15
2019-01-18T15:31:57.989Z,2.70
2019-01-18T15:34:45.552Z,2.50
2019-01-18T15:37:33.149Z,2.37
2019-01-18T15:40:20.726Z,2.65
2019-01-18T15:46:14.292Z,2.33
2019-01-18T15:48:55.184Z,2.80
2019-01-18T15:54:47.872Z,3.98
2019-01-18T15:57:28.772Z,5.28
2019-01-18T16:00:09.436Z,3.30
2019-01-18T16:06:02.393Z,3.70
2019-01-18T16:08:43.591Z,3.10
2019-01-18T16:11:24.392Z,2.35
2019-01-18T16:14:05.135Z,2.62
2019-01-18T16:22:42.881Z,3.58
2019-01-18T16:28:22.898Z,4.03
2019-01-18T16:34:02.945Z,3.35
2019-01-18T16:36:43.801Z,3.45
2019-01-18T16:48:34.491Z,5.25
2019-01-18T16:51:15.344Z,6.22
2019-01-18T16:53:44.009Z,6.37
2019-01-18T16:56:31.989Z,6.03
2019-01-18T16:59:20.190Z,6.37
2019-01-18T17:02:08.151Z,7.92
2019-01-18T17:04:56.091Z,5.87
2019-01-18T17:07:44.024Z,6.50
2019-01-18T17:10:32.006Z,4.70
2019-01-18T17:13:20.305Z,4.97
2019-01-18T17:16:08.292Z,3.90
2019-01-18T17:18:56.325Z,3.45
2019-01-18T17:21:44.284Z,3.83
2019-01-18T17:24:32.229Z,4.15
2019-01-18T17:27:20.173Z,3.70
2019-01-18T17:30:09.539Z,3.92
2019-01-18T17:32:57.476Z,3.42
2019-01-18T17:36:04.753Z,3.40
2019-01-18T17:39:11.971Z,4.00
2019-01-18T17:42:19.233Z,4.78
2019-01-18T17:45:26.453Z,5.25
2019-01-18T17:48:33.676Z,4.30
2019-01-18T17:51:40.903Z,3.90
2019-01-18T17:54:48.123Z,3.22
2019-01-18T17:57:55.341Z,4.20
2019-01-18T18:00:43.213Z,4.25
2019-01-18T18:03:50.441Z,5.08
2019-01-18T18:06:57.668Z,6.08
2019-01-18T18:13:15.082Z,8.28
2019-01-18T18:16:22.293Z,5.95
2019-01-18T18:19:29.595Z,3.55
2019-01-18T18:22:36.828Z,4.00
2019-01-18T18:25:44.049Z,4.10
2019-01-18T18:28:51.285Z,3.80
2019-01-18T18:31:58.561Z,3.83
2019-01-18T18:38:32.174Z,4.15
2019-01-18T18:41:39.390Z,4.67
2019-01-18T18:47:18.737Z,4.35
2019-01-18T18:49:59.689Z,4.85
2019-01-18T18:52:40.508Z,5.55
2019-01-18T18:55:21.160Z,4.75
2019-01-18T18:58:02.057Z,6.03
2019-01-18T19:03:57.543Z,5.03
2019-01-18T19:06:38.157Z,5.75
2019-01-18T19:09:45.642Z,6.53
2019-01-18T19:12:39.704Z,5.90
2019-01-18T19:15:30.992Z,6.25
2019-01-18T19:18:18.561Z,5.83
2019-01-18T19:21:25.794Z,5.53
2019-01-18T19:24:48.569Z,5.05
2019-01-18T19:27:47.541Z,4.70
2019-01-18T19:30:54.759Z,5.10
2019-01-18T19:34:04.490Z,4.85
2019-01-18T19:37:10.955Z,4.90
2019-01-18T19:40:18.198Z,4.78
2019-01-18T19:42:59.002Z,4.17
2019-01-18T19:45:39.490Z,3.80
2019-01-18T19:48:20.290Z,4.90
2019-01-18T19:51:01.553Z,5.72
2019-01-18T19:53:42.305Z,5.20
2019-01-18T19:56:23.214Z,6.62
2019-01-18T19:59:04.034Z,4.53
2019-01-18T20:04:43.316Z,5.12
2019-01-18T20:07:23.981Z,4.37
2019-01-18T20:10:04.845Z,4.60
2019-01-18T20:12:45.689Z,4.28
2019-01-18T20:15:26.452Z,4.47
2019-01-18T20:21:18.883Z,4.22
2019-01-18T20:23:59.909Z,4.60
2019-01-18T20:26:40.369Z,3.85
2019-01-18T20:29:21.074Z,5.05
2019-01-18T20:32:01.790Z,4.00
2019-01-18T20:37:54.723Z,4.53
2019-01-18T20:40:35.649Z,4.75
2019-01-18T20:43:16.437Z,4.15
2019-01-18T20:45:57.678Z,4.67
2019-01-18T20:48:38.310Z,4.40
2019-01-18T20:51:19.003Z,4.55
2019-01-18T20:53:59.561Z,3.95
2019-01-18T20:56:40.382Z,4.33
2019-01-18T20:59:21.650Z,4.78
2019-01-18T21:02:02.508Z,4.22
2019-01-18T21:04:42.893Z,4.45
2019-01-18T21:07:23.459Z,4.10
2019-01-18T21:10:04.273Z,4.10
2019-01-18T21:12:45.100Z,3.75
2019-01-18T21:21:36.468Z,4.20
2019-01-18T21:24:17.097Z,3.90
2019-01-18T21:26:58.153Z,4.10
2019-01-18T21:29:38.762Z,4.78
2019-01-18T21:32:19.256Z,4.30
2019-01-18T21:41:11.364Z,8.23
2019-01-18T21:43:51.789Z,11.18
2019-01-18T21:46:32.872Z,9.98
2019-01-18T21:49:13.249Z,8.38
2019-01-18T21:51:53.961Z,6.42
2019-01-18T21:57:33.054Z,5.10
2019-01-18T22:00:13.462Z,5.62
2019-01-18T22:02:54.218Z,3.90
2019-01-18T22:05:35.125Z,3.45
2019-01-18T22:11:15.322Z,4.17
2019-01-18T22:13:55.646Z,4.28
2019-01-18T22:19:18.669Z,4.17
2019-01-18T22:28:13.857Z,4.60
2019-01-18T22:31:07.648Z,4.40
2019-01-18T22:34:14.910Z,4.92
2019-01-18T22:37:22.141Z,3.65
2019-01-18T22:40:29.377Z,3.55
2019-01-18T22:43:10.366Z,3.37
2019-01-18T22:45:51.180Z,3.75
2019-01-18T22:48:32.129Z,2.92
2019-01-18T22:54:22.805Z,4.22
2019-01-18T22:57:30.026Z,4.22
2019-01-18T23:00:56.301Z,3.80
2019-01-18T23:04:03.521Z,4.55
2019-01-18T23:07:11.021Z,6.15
2019-01-18T23:10:18.592Z,4.60
2019-01-18T23:13:09.730Z,4.90
2019-01-18T23:16:16.950Z,4.75
2019-01-18T23:19:24.183Z,4.10
2019-01-18T23:22:31.410Z,3.85
2019-01-18T23:25:21.854Z,2.75
2019-01-18T23:28:29.089Z,3.22
2019-01-18T23:31:20.358Z,3.27
2019-01-18T23:34:14.421Z,2.65
2019-01-18T23:37:21.657Z,2.77
2019-01-18T23:40:28.890Z,2.98
2019-01-18T23:43:20.276Z,3.35
2019-01-18T23:46:27.510Z,2.98
2019-01-18T23:49:34.819Z,2.75
2019-01-18T23:52:22.643Z,2.70
2019-01-18T23:58:57.903Z,3.75
